Weather at Gerald R. Ford International Airport

Public forecast

Using degrees Fahrenheit for public forecast. Weather courtesy of forecast.io.

Current aviation weather report (METAR) for Gerald R. Ford International Airport

Retrieved 2021/10/23 12:53 UTC (34 minutes ago):

KGRR 231253Z 20007KT 10SM FEW030 FEW050 SCT090 BKN160 06/06 A3000 RMK AO2 SLP162 T00610056

Aviation forecast (TAF) for Gerald R. Ford International Airport

Retrieved 2021/10/23 12:30 UTC (57 minutes ago):

TAF KGRR 231128Z 2312/2412 27005KT P6SM BKN050 FM232200 30005KT P6SM SKC